createdAt,value
2018-07-28T00:01:54.694Z,8.83
2018-07-28T00:04:22.679Z,9.60
2018-07-28T00:06:51.085Z,8.30
2018-07-28T00:09:19.706Z,9.57
2018-07-28T00:11:47.709Z,9.30
2018-07-28T00:14:15.781Z,9.60
2018-07-28T00:16:43.751Z,9.57
2018-07-28T00:19:11.922Z,9.60
2018-07-28T00:21:40.000Z,9.30
2018-07-28T00:24:08.294Z,9.77
2018-07-28T00:26:37.109Z,9.97
2018-07-28T00:29:05.440Z,8.87
2018-07-28T00:31:33.518Z,10.90
2018-07-28T00:34:01.588Z,8.33
2018-07-28T00:36:29.626Z,9.03
2018-07-28T00:38:57.708Z,9.77
2018-07-28T00:41:25.717Z,10.20
2018-07-28T00:43:53.828Z,10.17
2018-07-28T00:46:21.776Z,9.40
2018-07-28T00:48:49.757Z,9.53
2018-07-28T00:51:18.601Z,11.13
2018-07-28T00:53:46.541Z,10.00
2018-07-28T00:56:14.552Z,8.47
2018-07-28T00:58:42.657Z,9.77
2018-07-28T01:01:11.035Z,10.67
2018-07-28T01:03:39.298Z,9.60
2018-07-28T01:06:07.714Z,9.37
2018-07-28T01:08:35.821Z,9.10
2018-07-28T01:11:04.086Z,10.20
2018-07-28T01:13:32.388Z,9.40
2018-07-28T01:16:00.473Z,9.73
2018-07-28T01:18:28.504Z,10.20
2018-07-28T01:20:56.513Z,10.90
2018-07-28T01:23:27.128Z,9.77
2018-07-28T01:25:55.532Z,9.73
2018-07-28T01:28:23.614Z,11.10
2018-07-28T01:30:51.615Z,10.73
2018-07-28T01:33:19.877Z,11.20
2018-07-28T01:35:48.581Z,12.00
2018-07-28T01:38:16.549Z,10.07
2018-07-28T01:40:44.625Z,11.33
2018-07-28T01:43:13.039Z,10.17
2018-07-28T01:45:43.291Z,10.50
2018-07-28T01:48:11.355Z,11.10
2018-07-28T01:50:39.906Z,11.37
2018-07-28T01:53:08.160Z,10.67
2018-07-28T01:55:36.342Z,9.53
2018-07-28T01:58:07.239Z,10.57
2018-07-28T02:00:35.434Z,10.50
2018-07-28T02:03:04.766Z,10.23
2018-07-28T02:05:33.159Z,10.70
2018-07-28T02:08:01.149Z,10.87
2018-07-28T02:10:29.130Z,10.03
2018-07-28T02:12:57.286Z,11.37
2018-07-28T02:15:25.820Z,10.97
2018-07-28T02:17:53.840Z,11.03
2018-07-28T02:20:21.785Z,11.30
2018-07-28T02:22:49.875Z,11.40
2018-07-28T02:25:17.873Z,10.40
2018-07-28T02:27:45.918Z,10.43
2018-07-28T02:30:13.874Z,9.43
2018-07-28T02:32:41.940Z,9.50
2018-07-28T02:35:10.032Z,9.00
2018-07-28T02:37:38.248Z,8.47
2018-07-28T02:40:06.800Z,9.27
2018-07-28T02:42:35.072Z,7.77
2018-07-28T02:45:03.239Z,8.23
2018-07-28T02:47:31.218Z,8.60
2018-07-28T02:49:59.224Z,8.30
2018-07-28T02:52:27.253Z,7.80
2018-07-28T02:54:55.243Z,7.70
2018-07-28T02:57:23.309Z,7.23
2018-07-28T02:59:51.573Z,8.50
2018-07-28T03:02:19.657Z,8.73
2018-07-28T03:04:47.605Z,8.67
2018-07-28T03:07:15.628Z,8.33
2018-07-28T03:09:43.613Z,8.47
2018-07-28T03:12:11.686Z,9.23
2018-07-28T03:14:39.780Z,8.13
2018-07-28T03:17:09.096Z,9.10
2018-07-28T03:19:37.314Z,8.20
2018-07-28T03:22:05.920Z,9.20
2018-07-28T03:24:34.312Z,8.87
2018-07-28T03:27:02.334Z,8.50
2018-07-28T03:29:30.282Z,8.17
2018-07-28T03:31:58.268Z,8.87
2018-07-28T03:34:26.273Z,7.80
2018-07-28T03:36:54.472Z,7.30
2018-07-28T03:39:22.456Z,8.80
2018-07-28T03:41:50.446Z,8.27
2018-07-28T03:44:18.469Z,9.07
2018-07-28T03:46:46.460Z,8.50
2018-07-28T03:49:15.272Z,8.93
2018-07-28T03:51:43.253Z,8.37
2018-07-28T04:00:17.008Z,8.40
2018-07-28T04:02:46.212Z,8.33
2018-07-28T04:05:14.279Z,8.30
2018-07-28T04:07:42.305Z,9.73
2018-07-28T04:10:10.714Z,10.63
2018-07-28T04:12:40.430Z,9.57
2018-07-28T04:15:10.479Z,9.37
2018-07-28T04:17:45.670Z,9.07
2018-07-28T04:20:14.253Z,8.83
2018-07-28T04:22:43.004Z,8.60
2018-07-28T04:25:11.262Z,8.43
2018-07-28T04:27:39.595Z,9.07
2018-07-28T04:30:08.491Z,8.67
2018-07-28T04:32:36.816Z,8.37
2018-07-28T04:35:06.485Z,8.77
2018-07-28T04:37:34.862Z,8.80
2018-07-28T04:40:03.081Z,9.53
2018-07-28T04:42:31.066Z,8.60
2018-07-28T04:44:59.243Z,9.30
2018-07-28T04:47:27.724Z,9.67
2018-07-28T04:49:55.919Z,8.70
2018-07-28T04:52:24.219Z,9.90
2018-07-28T04:54:52.816Z,8.37
2018-07-28T04:57:20.909Z,9.03
2018-07-28T04:59:49.578Z,8.77
2018-07-28T05:02:17.785Z,7.97
2018-07-28T05:04:46.069Z,9.57
2018-07-28T05:07:14.107Z,7.70
2018-07-28T05:09:42.096Z,8.50
2018-07-28T05:12:10.379Z,8.17
2018-07-28T05:14:38.898Z,8.90
2018-07-28T05:17:07.053Z,8.40
2018-07-28T05:19:35.396Z,7.93
2018-07-28T05:22:06.217Z,8.27
2018-07-28T05:24:35.245Z,8.23
2018-07-28T05:27:03.712Z,7.90
2018-07-28T05:29:31.672Z,8.67
2018-07-28T05:31:59.844Z,7.73
2018-07-28T05:34:28.037Z,7.33
2018-07-28T05:36:56.233Z,7.80
2018-07-28T05:39:24.281Z,8.27
2018-07-28T05:41:52.392Z,7.70
2018-07-28T05:44:20.373Z,8.07
2018-07-28T05:46:48.560Z,7.43
2018-07-28T05:49:16.491Z,8.10
2018-07-28T05:51:44.472Z,7.00
2018-07-28T05:54:12.455Z,8.17
2018-07-28T05:56:40.705Z,7.87
2018-07-28T05:59:11.030Z,8.43
2018-07-28T06:01:39.341Z,8.07
2018-07-28T06:04:07.768Z,7.87
2018-07-28T06:06:36.981Z,8.13
2018-07-28T06:09:06.991Z,7.53
2018-07-28T06:11:37.220Z,7.70
2018-07-28T06:14:06.469Z,7.93
2018-07-28T06:16:35.566Z,6.10
2018-07-28T06:19:04.371Z,7.67
2018-07-28T06:21:32.642Z,6.80
2018-07-28T06:24:00.911Z,7.23
2018-07-28T06:26:29.011Z,6.97
2018-07-28T06:28:57.182Z,7.13
2018-07-28T06:31:26.075Z,7.00
2018-07-28T06:33:54.920Z,7.37
2018-07-28T06:36:23.646Z,6.90
2018-07-28T06:38:51.901Z,6.63
2018-07-28T06:41:19.936Z,6.03
2018-07-28T06:43:47.989Z,6.10
2018-07-28T06:46:16.089Z,5.53
2018-07-28T06:48:48.907Z,6.27
2018-07-28T06:51:17.204Z,6.00
2018-07-28T06:53:45.982Z,5.93
2018-07-28T06:56:14.091Z,7.47
2018-07-28T06:58:42.612Z,6.23
2018-07-28T07:01:10.792Z,6.17
2018-07-28T07:09:20.411Z,6.40
2018-07-28T07:11:48.639Z,5.73
2018-07-28T07:14:17.759Z,7.70
2018-07-28T07:16:45.813Z,5.37
2018-07-28T07:19:14.073Z,6.37
2018-07-28T07:21:42.322Z,7.00
2018-07-28T07:26:52.043Z,6.37
2018-07-28T07:29:25.549Z,6.00
2018-07-28T07:31:57.637Z,6.20
2018-07-28T07:34:26.444Z,5.67
2018-07-28T07:37:05.102Z,6.90
2018-07-28T07:39:42.544Z,6.30
2018-07-28T07:42:11.663Z,6.40
2018-07-28T07:44:40.357Z,6.70
2018-07-28T07:47:10.525Z,6.53
2018-07-28T07:49:45.367Z,6.37
2018-07-28T07:52:14.566Z,5.90
2018-07-28T07:54:43.319Z,6.20
2018-07-28T07:57:12.452Z,5.67
2018-07-28T07:59:40.790Z,6.17
2018-07-28T08:02:09.610Z,6.17
2018-07-28T08:04:41.371Z,6.87
2018-07-28T08:07:09.792Z,6.80
2018-07-28T08:09:38.431Z,6.50
2018-07-28T08:12:07.517Z,5.93
2018-07-28T08:14:36.780Z,5.63
2018-07-28T08:17:06.725Z,11.40
2018-07-28T08:19:35.538Z,6.10
2018-07-28T08:24:39.958Z,6.00
2018-07-28T08:27:08.774Z,6.10
2018-07-28T08:29:38.254Z,6.20
2018-07-28T08:32:07.222Z,6.65
2018-07-28T08:34:35.527Z,6.70
2018-07-28T08:37:03.515Z,6.50
2018-07-28T08:39:31.572Z,6.73
2018-07-28T08:41:59.662Z,6.77
2018-07-28T08:44:28.091Z,6.37
2018-07-28T08:46:56.399Z,6.20
2018-07-28T08:49:24.670Z,6.87
2018-07-28T08:51:52.518Z,5.83
2018-07-28T08:54:20.500Z,6.40
2018-07-28T08:56:48.418Z,5.70
2018-07-28T08:59:16.356Z,6.50
2018-07-28T09:01:44.303Z,4.97
2018-07-28T09:04:13.357Z,5.23
2018-07-28T09:06:41.628Z,5.73
2018-07-28T09:09:11.218Z,6.40
2018-07-28T09:11:39.555Z,5.63
2018-07-28T09:14:08.968Z,5.73
2018-07-28T09:16:37.419Z,5.60
2018-07-28T09:19:06.428Z,6.10
2018-07-28T09:21:35.033Z,5.10
2018-07-28T09:24:02.976Z,5.40
2018-07-28T09:26:30.997Z,6.33
2018-07-28T09:28:59.227Z,5.30
2018-07-28T09:31:27.716Z,6.20
2018-07-28T09:33:56.101Z,5.30
2018-07-28T09:36:24.310Z,5.33
2018-07-28T09:38:52.304Z,5.77
2018-07-28T09:41:20.260Z,5.30
2018-07-28T09:43:48.904Z,4.90
2018-07-28T09:46:23.311Z,5.53
2018-07-28T09:48:51.298Z,5.33
2018-07-28T09:51:19.311Z,4.83
2018-07-28T09:53:47.232Z,5.30
2018-07-28T09:56:15.225Z,5.20
2018-07-28T09:58:43.601Z,5.50
2018-07-28T10:01:18.504Z,5.97
2018-07-28T10:03:46.898Z,5.70
2018-07-28T10:06:15.207Z,4.50
2018-07-28T10:08:43.489Z,5.00
2018-07-28T10:11:11.879Z,5.50
2018-07-28T10:13:40.338Z,5.10
2018-07-28T10:16:15.055Z,5.23
2018-07-28T10:18:43.285Z,7.03
2018-07-28T10:21:11.863Z,5.40
2018-07-28T10:23:40.501Z,4.70
2018-07-28T10:26:09.100Z,4.90
2018-07-28T10:28:37.512Z,4.00
2018-07-28T10:31:06.281Z,5.50
2018-07-28T10:33:34.572Z,5.17
2018-07-28T10:36:02.763Z,4.30
2018-07-28T10:38:31.061Z,4.67
2018-07-28T10:40:59.654Z,4.13
2018-07-28T10:43:27.986Z,4.67
2018-07-28T10:45:55.970Z,4.80
2018-07-28T10:48:23.969Z,4.27
2018-07-28T10:50:51.935Z,4.40
2018-07-28T10:53:19.934Z,4.70
2018-07-28T10:55:48.551Z,4.50
2018-07-28T10:58:16.509Z,5.87
2018-07-28T11:00:44.478Z,5.00
2018-07-28T11:03:13.196Z,5.13
2018-07-28T11:05:41.700Z,5.43
2018-07-28T11:08:09.947Z,5.40
2018-07-28T11:10:38.401Z,5.03
2018-07-28T11:13:07.027Z,5.40
2018-07-28T11:15:35.503Z,4.20
2018-07-28T11:18:03.519Z,4.70
2018-07-28T11:20:31.477Z,4.90
2018-07-28T11:22:59.445Z,4.27
2018-07-28T11:25:27.823Z,5.40
2018-07-28T11:27:55.897Z,4.80
2018-07-28T11:30:23.868Z,5.30
2018-07-28T11:35:04.651Z,5.00
2018-07-28T11:37:38.336Z,4.90
2018-07-28T11:40:12.066Z,4.80
2018-07-28T11:42:45.515Z,4.77
2018-07-28T11:45:15.351Z,5.27
2018-07-28T11:47:43.693Z,5.73
2018-07-28T11:50:11.951Z,5.53
2018-07-28T11:52:40.493Z,5.10
2018-07-28T11:55:09.189Z,4.57
2018-07-28T11:57:37.955Z,6.20
2018-07-28T12:00:07.294Z,5.67
2018-07-28T12:02:35.888Z,6.30
2018-07-28T12:05:05.064Z,5.60
2018-07-28T12:07:33.097Z,6.00
2018-07-28T12:10:01.200Z,5.80
2018-07-28T12:12:29.618Z,5.77
2018-07-28T12:14:58.188Z,6.23
2018-07-28T12:17:26.436Z,5.93
2018-07-28T12:19:54.453Z,6.10
2018-07-28T12:22:22.497Z,5.60
2018-07-28T12:24:50.548Z,5.60
2018-07-28T12:27:18.506Z,5.73
2018-07-28T12:29:46.461Z,5.63
2018-07-28T12:32:14.551Z,5.03
2018-07-28T12:34:43.120Z,6.30
2018-07-28T12:37:11.244Z,6.20
2018-07-28T12:39:39.674Z,5.80
2018-07-28T12:42:08.191Z,5.40
2018-07-28T12:44:36.625Z,5.77
2018-07-28T12:47:04.896Z,6.10
2018-07-28T12:49:33.289Z,5.80
2018-07-28T12:52:01.264Z,5.63
2018-07-28T12:54:29.369Z,5.20
2018-07-28T12:56:57.487Z,6.53
2018-07-28T12:59:25.635Z,5.27
2018-07-28T13:01:53.565Z,5.90
2018-07-28T13:04:21.520Z,6.20
2018-07-28T13:06:49.461Z,6.07
2018-07-28T13:09:17.437Z,4.97
2018-07-28T13:11:45.405Z,6.37
2018-07-28T13:14:13.513Z,6.67
2018-07-28T13:16:41.965Z,6.00
2018-07-28T13:19:10.428Z,6.20
2018-07-28T13:21:38.690Z,6.33
2018-07-28T13:24:07.304Z,5.53
2018-07-28T13:26:35.811Z,5.97
2018-07-28T13:29:04.085Z,5.90
2018-07-28T13:31:32.226Z,5.47
2018-07-28T13:34:00.175Z,5.80
2018-07-28T13:36:28.530Z,5.40
2018-07-28T13:38:56.925Z,5.30
2018-07-28T13:41:24.871Z,4.90
2018-07-28T13:43:53.232Z,5.63
2018-07-28T13:46:21.195Z,4.50
2018-07-28T13:48:49.189Z,4.60
2018-07-28T13:51:17.145Z,4.40
2018-07-28T13:53:45.104Z,4.80
2018-07-28T13:56:13.505Z,4.23
2018-07-28T13:58:41.735Z,4.80
2018-07-28T14:01:10.432Z,6.30
2018-07-28T14:03:39.192Z,4.73
2018-07-28T14:06:08.167Z,5.27
2018-07-28T14:08:36.999Z,4.67
2018-07-28T14:11:05.926Z,5.33
2018-07-28T14:13:34.321Z,5.67
2018-07-28T14:16:02.314Z,6.00
2018-07-28T14:18:30.605Z,4.77
2018-07-28T14:20:58.746Z,5.47
2018-07-28T14:23:27.051Z,5.77
2018-07-28T14:25:55.063Z,4.27
2018-07-28T14:28:23.001Z,3.87
2018-07-28T14:30:50.971Z,4.67
2018-07-28T14:33:18.894Z,4.93
2018-07-28T14:35:47.068Z,4.50
2018-07-28T14:38:15.072Z,4.00
2018-07-28T14:40:43.376Z,3.83
2018-07-28T14:43:11.595Z,4.00
2018-07-28T14:45:40.429Z,3.80
2018-07-28T14:48:09.284Z,4.27
2018-07-28T14:50:37.972Z,3.93
2018-07-28T14:53:06.837Z,3.47
2018-07-28T14:55:35.495Z,4.07
2018-07-28T14:58:03.550Z,3.57
2018-07-28T15:00:31.578Z,3.27
2018-07-28T15:02:59.720Z,2.97
2018-07-28T15:05:27.981Z,3.20
2018-07-28T15:07:56.273Z,3.53
2018-07-28T15:10:24.216Z,4.00
2018-07-28T15:12:52.413Z,3.37
2018-07-28T15:15:20.341Z,4.10
2018-07-28T15:17:48.358Z,3.83
2018-07-28T15:20:16.316Z,4.03
2018-07-28T15:22:44.436Z,4.30
2018-07-28T15:25:12.653Z,5.33
2018-07-28T15:27:40.881Z,4.10
2018-07-28T15:30:10.174Z,4.27
2018-07-28T15:32:38.867Z,4.30
2018-07-28T15:35:07.437Z,6.13
2018-07-28T15:37:36.021Z,5.53
2018-07-28T15:40:04.301Z,6.33
2018-07-28T15:42:32.332Z,4.73
2018-07-28T15:45:00.344Z,4.40
2018-07-28T15:47:28.692Z,4.40
2018-07-28T15:49:57.239Z,5.50
2018-07-28T15:52:25.903Z,4.73
2018-07-28T15:54:53.977Z,5.60
2018-07-28T15:57:23.095Z,5.50
2018-07-28T15:59:51.071Z,4.80
2018-07-28T16:02:19.027Z,4.40
2018-07-28T16:04:46.964Z,4.67
2018-07-28T16:07:14.949Z,5.27
2018-07-28T16:09:43.177Z,4.90
2018-07-28T16:12:11.481Z,4.87
2018-07-28T16:14:39.871Z,5.20
2018-07-28T16:17:08.362Z,4.60
2018-07-28T16:19:36.725Z,4.87
2018-07-28T16:22:05.380Z,4.90
2018-07-28T16:24:33.457Z,4.57
2018-07-28T16:27:01.433Z,4.80
2018-07-28T16:29:29.617Z,4.40
2018-07-28T16:31:59.517Z,5.00
2018-07-28T16:34:28.103Z,3.93
2018-07-28T16:36:56.268Z,5.00
2018-07-28T16:39:24.320Z,4.30
2018-07-28T16:41:52.291Z,5.30
2018-07-28T16:44:20.296Z,5.30
2018-07-28T16:46:48.335Z,4.97
2018-07-28T16:49:16.265Z,4.50
2018-07-28T16:51:44.781Z,4.43
2018-07-28T16:54:13.453Z,5.73
2018-07-28T16:56:41.686Z,5.63
2018-07-28T16:59:10.938Z,4.23
2018-07-28T17:01:39.254Z,5.20
2018-07-28T17:04:07.727Z,5.00
2018-07-28T17:06:35.992Z,5.03
2018-07-28T17:09:05.967Z,4.87
2018-07-28T17:11:34.360Z,4.80
2018-07-28T17:14:02.944Z,4.40
2018-07-28T17:16:31.021Z,4.20
2018-07-28T17:18:59.062Z,4.33
2018-07-28T17:21:28.105Z,5.10
2018-07-28T17:23:56.422Z,5.37
2018-07-28T17:26:24.655Z,5.03
2018-07-28T17:28:52.580Z,5.00
2018-07-28T17:31:20.511Z,4.90
2018-07-28T17:33:48.501Z,4.60
2018-07-28T17:36:16.442Z,5.50
2018-07-28T17:38:44.491Z,5.90
2018-07-28T17:41:12.709Z,5.20
2018-07-28T17:43:41.159Z,5.53
2018-07-28T17:46:09.632Z,5.73
2018-07-28T17:48:38.715Z,5.63
2018-07-28T17:51:07.477Z,5.83
2018-07-28T17:53:35.636Z,6.17
2018-07-28T17:56:03.750Z,5.23
2018-07-28T17:58:32.079Z,6.10
2018-07-28T18:01:00.019Z,6.03
2018-07-28T18:03:28.042Z,5.50
2018-07-28T18:05:56.338Z,5.70
2018-07-28T18:08:24.513Z,6.63
2018-07-28T18:10:52.445Z,5.50
2018-07-28T18:13:20.417Z,6.30
2018-07-28T18:15:48.397Z,5.20
2018-07-28T18:18:16.664Z,6.53
2018-07-28T18:20:44.745Z,6.00
2018-07-28T18:23:12.755Z,6.07
2018-07-28T18:25:40.945Z,5.50
2018-07-28T18:28:09.220Z,5.83
2018-07-28T18:30:37.613Z,5.67
2018-07-28T18:33:05.933Z,5.93
2018-07-28T18:35:35.161Z,5.50
2018-07-28T18:38:03.122Z,6.03
2018-07-28T18:40:31.444Z,4.97
2018-07-28T18:42:59.736Z,4.60
2018-07-28T18:45:28.014Z,5.37
2018-07-28T18:47:56.449Z,4.80
2018-07-28T18:50:24.569Z,4.77
2018-07-28T18:52:52.556Z,5.10
2018-07-28T18:55:20.541Z,5.13
2018-07-28T18:57:48.542Z,4.90
2018-07-28T19:00:16.912Z,5.63
2018-07-28T19:02:44.877Z,5.77
2018-07-28T19:05:13.781Z,5.27
2018-07-28T19:07:41.923Z,5.00
2018-07-28T19:10:10.179Z,5.63
2018-07-28T19:12:43.529Z,6.20
2018-07-28T19:15:11.815Z,5.40
2018-07-28T19:17:45.804Z,6.10
2018-07-28T19:20:13.830Z,5.33
2018-07-28T19:22:47.245Z,5.43
2018-07-28T19:25:15.141Z,4.67
2018-07-28T19:27:47.473Z,5.70
2018-07-28T19:30:15.399Z,5.30
2018-07-28T19:32:43.358Z,4.77
2018-07-28T19:35:11.457Z,5.20
2018-07-28T19:37:39.757Z,5.90
2018-07-28T19:40:07.973Z,6.37
2018-07-28T19:42:41.502Z,5.67
2018-07-28T19:45:09.621Z,5.60
2018-07-28T19:47:38.369Z,6.13
2018-07-28T19:50:06.667Z,5.87
2018-07-28T19:52:35.040Z,6.67
2018-07-28T19:55:02.981Z,6.17
2018-07-28T19:57:30.908Z,6.77
2018-07-28T19:59:58.886Z,5.83
2018-07-28T20:02:29.647Z,6.67
2018-07-28T20:04:58.055Z,6.23
2018-07-28T20:07:26.097Z,5.90
2018-07-28T20:09:54.535Z,5.80
2018-07-28T20:12:22.459Z,6.13
2018-07-28T20:14:50.450Z,6.20
2018-07-28T20:17:18.382Z,6.10
2018-07-28T20:19:46.414Z,6.03
2018-07-28T20:22:14.341Z,6.40
2018-07-28T20:24:42.398Z,6.37
2018-07-28T20:27:10.594Z,5.50
2018-07-28T20:29:39.026Z,5.83
2018-07-28T20:32:07.336Z,6.53
2018-07-28T20:34:35.772Z,6.80
2018-07-28T20:37:03.888Z,5.70
2018-07-28T20:39:31.847Z,6.03
2018-07-28T20:42:00.022Z,6.70
2018-07-28T20:44:28.409Z,5.73
2018-07-28T20:46:56.344Z,6.30
2018-07-28T20:49:24.305Z,6.00
2018-07-28T20:51:52.213Z,5.90
2018-07-28T20:54:20.198Z,5.90
2018-07-28T20:56:48.139Z,6.73
2018-07-28T20:59:16.198Z,6.00
2018-07-28T21:01:44.362Z,6.60
2018-07-28T21:04:12.757Z,6.70
2018-07-28T21:06:41.008Z,6.90
2018-07-28T21:09:09.638Z,6.20
2018-07-28T21:11:38.009Z,5.90
2018-07-28T21:14:06.522Z,6.97
2018-07-28T21:16:34.597Z,6.47
2018-07-28T21:19:02.638Z,6.30
2018-07-28T21:21:30.609Z,7.23
2018-07-28T21:23:58.946Z,6.50
2018-07-28T21:26:26.836Z,6.23
2018-07-28T21:28:54.803Z,5.83
2018-07-28T21:31:22.755Z,6.53
2018-07-28T21:33:50.903Z,5.33
2018-07-28T21:36:18.854Z,5.63
2018-07-28T21:38:46.807Z,6.83
2018-07-28T21:41:14.732Z,6.33
2018-07-28T21:43:42.742Z,5.97
2018-07-28T21:46:11.415Z,6.17
2018-07-28T21:48:39.664Z,6.00
2018-07-28T21:51:08.207Z,5.50
2018-07-28T21:53:36.743Z,6.47
2018-07-28T21:56:04.914Z,6.63
2018-07-28T21:58:32.846Z,5.97
2018-07-28T22:01:06.261Z,6.87
2018-07-28T22:03:35.605Z,6.80
2018-07-28T22:06:04.025Z,5.93
2018-07-28T22:08:31.957Z,6.30
2018-07-28T22:10:59.944Z,5.63
2018-07-28T22:13:28.216Z,5.93
2018-07-28T22:15:56.332Z,5.57
2018-07-28T22:18:24.383Z,6.07
2018-07-28T22:20:52.309Z,6.87
2018-07-28T22:23:20.249Z,5.47
2018-07-28T22:25:48.219Z,5.40
2018-07-28T22:28:16.302Z,6.50
2018-07-28T22:30:44.444Z,5.30
2018-07-28T22:33:12.571Z,5.87
2018-07-28T22:35:40.702Z,5.20
2018-07-28T22:38:08.972Z,5.57
2018-07-28T22:40:37.397Z,5.90
2018-07-28T22:43:05.526Z,5.07
2018-07-28T22:45:33.496Z,6.00
2018-07-28T22:48:02.377Z,4.60
2018-07-28T22:50:31.322Z,5.30
2018-07-28T22:53:01.196Z,5.30
2018-07-28T22:55:30.733Z,4.67
2018-07-28T22:57:59.145Z,5.47
2018-07-28T23:00:27.384Z,5.50
2018-07-28T23:02:56.515Z,4.73
2018-07-28T23:05:24.520Z,5.20
2018-07-28T23:07:53.474Z,4.80
2018-07-28T23:10:21.528Z,4.40
2018-07-28T23:12:50.587Z,5.37
2018-07-28T23:15:18.596Z,4.83
2018-07-28T23:17:47.173Z,5.53
2018-07-28T23:20:15.085Z,5.13
2018-07-28T23:22:43.847Z,4.30
2018-07-28T23:25:12.038Z,5.40
2018-07-28T23:27:40.182Z,5.40
2018-07-28T23:30:11.731Z,4.80
2018-07-28T23:32:40.643Z,5.47
2018-07-28T23:35:09.020Z,4.53
2018-07-28T23:37:37.418Z,5.90
2018-07-28T23:40:05.715Z,4.77
2018-07-28T23:42:33.645Z,5.43
2018-07-28T23:45:02.566Z,4.50
2018-07-28T23:47:30.512Z,5.27
2018-07-28T23:50:00.087Z,5.30
2018-07-28T23:52:28.452Z,4.50
2018-07-28T23:54:57.889Z,4.90
2018-07-28T23:57:27.682Z,5.27
2018-07-28T23:59:57.551Z,5.87
